createdAt,value
2019-02-20T00:00:42.570Z,66.24
2019-02-20T00:05:44.569Z,66.26
2019-02-20T00:10:46.456Z,66.16
2019-02-20T00:15:48.347Z,65.98
2019-02-20T00:20:51.331Z,66.81
2019-02-20T00:25:54.466Z,66.76
2019-02-20T00:30:56.351Z,67.42
2019-02-20T00:35:58.435Z,67.51
2019-02-20T00:41:00.572Z,67.86
2019-02-20T00:46:11.557Z,68.32
2019-02-20T00:56:56.153Z,68.63
2019-02-20T01:01:58.484Z,68.60
2019-02-20T01:07:01.384Z,68.85
2019-02-20T01:12:04.105Z,68.28
2019-02-20T01:17:12.301Z,67.29
2019-02-20T01:22:14.336Z,66.77
2019-02-20T01:27:16.343Z,66.76
2019-02-20T01:32:18.278Z,67.40
2019-02-20T01:37:20.163Z,68.54
2019-02-20T01:42:22.575Z,68.91
2019-02-20T01:47:24.474Z,69.28
2019-02-20T01:52:27.905Z,69.24
2019-02-20T01:57:29.932Z,69.03
2019-02-20T02:02:31.823Z,68.99
2019-02-20T02:07:33.713Z,69.78
2019-02-20T02:12:35.869Z,68.75
2019-02-20T02:17:37.895Z,67.65
2019-02-20T02:22:40.910Z,67.66
2019-02-20T02:27:42.814Z,67.78
2019-02-20T02:32:44.708Z,68.18
2019-02-20T02:37:47.836Z,68.49
2019-02-20T02:42:49.760Z,69.09
2019-02-20T02:47:51.817Z,68.95
2019-02-20T02:52:53.756Z,68.58
2019-02-20T02:57:55.667Z,69.37
2019-02-20T03:02:57.578Z,68.85
2019-02-20T03:07:59.458Z,67.82
2019-02-20T03:13:01.736Z,67.54
2019-02-20T03:18:03.762Z,67.54
2019-02-20T03:23:05.855Z,67.85
2019-02-20T03:28:07.770Z,67.97
2019-02-20T03:33:09.667Z,67.92
2019-02-20T03:38:11.582Z,68.50
2019-02-20T03:43:13.490Z,68.94
2019-02-20T03:48:15.445Z,69.29
2019-02-20T03:53:17.404Z,69.40
2019-02-20T03:58:19.489Z,69.24
2019-02-20T04:03:21.353Z,68.77
2019-02-20T04:08:23.246Z,69.41
2019-02-20T04:13:25.154Z,69.86
2019-02-20T04:18:27.261Z,70.09
2019-02-20T04:23:29.349Z,69.30
2019-02-20T04:28:31.263Z,69.33
2019-02-20T04:33:33.207Z,69.99
2019-02-20T04:38:35.086Z,70.07
2019-02-20T04:43:37.020Z,69.97
2019-02-20T04:48:39.150Z,70.26
2019-02-20T04:53:41.084Z,70.30
2019-02-20T04:58:44.176Z,70.16
2019-02-20T05:03:46.381Z,70.15
2019-02-20T05:08:48.372Z,69.92
2019-02-20T05:13:50.276Z,69.87
2019-02-20T05:18:52.468Z,69.60
2019-02-20T05:23:54.416Z,69.96
2019-02-20T05:28:56.534Z,70.22
2019-02-20T05:33:58.456Z,70.01
2019-02-20T05:39:00.374Z,69.29
2019-02-20T05:44:02.272Z,69.59
2019-02-20T05:49:04.246Z,69.37
2019-02-20T05:54:06.309Z,69.21
2019-02-20T05:59:08.268Z,69.95
2019-02-20T06:04:10.292Z,69.52
2019-02-20T06:09:12.173Z,69.68
2019-02-20T06:14:14.276Z,69.76
2019-02-20T06:19:16.675Z,69.78
2019-02-20T06:24:18.563Z,69.45
2019-02-20T06:29:21.605Z,68.98
2019-02-20T06:34:23.636Z,69.06
2019-02-20T06:39:25.545Z,69.43
2019-02-20T06:44:27.992Z,69.10
2019-02-20T06:49:29.912Z,69.45
2019-02-20T06:54:31.828Z,69.63
2019-02-20T06:59:33.758Z,69.70
2019-02-20T07:04:35.853Z,69.67
2019-02-20T07:10:25.041Z,69.62
2019-02-20T07:15:57.512Z,69.25
2019-02-20T07:21:47.712Z,69.11
2019-02-20T07:27:28.226Z,68.63
2019-02-20T07:32:30.847Z,68.59
2019-02-20T07:37:32.857Z,68.52
2019-02-20T07:42:35.940Z,68.27
2019-02-20T07:47:50.822Z,67.81
2019-02-20T07:52:53.035Z,66.82
2019-02-20T07:57:54.952Z,66.84
2019-02-20T08:02:56.881Z,67.24
2019-02-20T08:07:59.872Z,66.66
2019-02-20T08:13:01.863Z,66.21
2019-02-20T08:18:04.772Z,65.48
2019-02-20T08:23:06.650Z,64.98
2019-02-20T08:28:08.579Z,65.74
2019-02-20T08:33:10.497Z,64.58
2019-02-20T08:38:12.373Z,64.92
2019-02-20T08:43:14.260Z,64.39
2019-02-20T08:48:16.203Z,63.07
2019-02-20T08:53:18.096Z,62.90
2019-02-20T08:58:20.256Z,62.20
2019-02-20T09:03:22.246Z,60.99
2019-02-20T09:08:25.537Z,60.84
2019-02-20T09:13:27.419Z,60.82
2019-02-20T09:18:29.344Z,60.30
2019-02-20T09:23:31.321Z,60.31
2019-02-20T09:28:33.279Z,59.65
2019-02-20T09:33:35.193Z,59.89
2019-02-20T09:38:37.078Z,58.32
2019-02-20T09:43:38.984Z,57.21
2019-02-20T09:48:40.917Z,57.50
2019-02-20T09:53:42.810Z,57.37
2019-02-20T09:58:44.784Z,57.10
2019-02-20T10:03:46.793Z,56.38
2019-02-20T10:08:48.681Z,56.84
2019-02-20T10:13:50.589Z,55.52
2019-02-20T10:18:52.518Z,55.77
2019-02-20T10:23:54.402Z,54.78
2019-02-20T10:28:56.342Z,54.95
2019-02-20T10:33:58.226Z,54.85
2019-02-20T10:39:00.294Z,54.23
2019-02-20T10:44:02.198Z,53.79
2019-02-20T10:49:05.185Z,53.71
2019-02-20T10:54:07.130Z,53.00
2019-02-20T10:59:10.168Z,51.25
2019-02-20T11:04:12.059Z,51.40
2019-02-20T11:09:13.988Z,50.71
2019-02-20T11:14:15.888Z,50.55
2019-02-20T11:19:17.798Z,50.81
2019-02-20T11:24:19.774Z,50.58
2019-02-20T11:29:21.712Z,50.90
2019-02-20T11:34:23.926Z,51.60
2019-02-20T11:39:25.922Z,49.92
2019-02-20T11:44:27.819Z,50.06
2019-02-20T11:49:30.884Z,50.01
2019-02-20T11:54:32.764Z,49.94
2019-02-20T11:59:34.747Z,49.13
2019-02-20T12:04:36.784Z,48.11
2019-02-20T12:09:38.883Z,48.45
2019-02-20T12:14:40.788Z,47.96
2019-02-20T12:19:43.061Z,48.96
2019-02-20T12:24:46.960Z,49.02
2019-02-20T12:29:49.096Z,47.91
2019-02-20T12:34:51.203Z,47.64
2019-02-20T12:39:53.130Z,48.23
2019-02-20T12:44:55.027Z,48.75
2019-02-20T12:49:56.948Z,48.39
2019-02-20T12:54:58.832Z,47.56
2019-02-20T13:00:00.879Z,45.57
2019-02-20T13:05:03.167Z,46.03
2019-02-20T13:10:05.703Z,45.19
2019-02-20T13:15:07.880Z,45.02
2019-02-20T13:20:11.156Z,44.83
2019-02-20T13:25:13.151Z,44.68
2019-02-20T13:30:15.164Z,44.24
2019-02-20T13:35:18.668Z,44.46
2019-02-20T13:40:21.088Z,44.96
2019-02-20T13:45:23.164Z,45.30
2019-02-20T13:50:25.084Z,45.15
2019-02-20T13:55:34.248Z,44.48
2019-02-20T14:00:31.157Z,43.32
2019-02-20T14:05:33.192Z,42.23
2019-02-20T14:10:35.298Z,39.94
2019-02-20T14:15:37.258Z,39.67
2019-02-20T14:20:39.665Z,40.27
2019-02-20T14:25:41.550Z,41.24
2019-02-20T14:30:43.574Z,41.18
2019-02-20T14:35:45.801Z,42.54
2019-02-20T14:40:48.293Z,44.42
2019-02-20T14:45:50.262Z,43.15
2019-02-20T14:50:52.342Z,43.13
2019-02-20T14:55:54.247Z,43.06
2019-02-20T15:00:57.639Z,43.61
2019-02-20T15:05:59.538Z,44.62
2019-02-20T15:11:01.533Z,45.47
2019-02-20T15:16:03.565Z,45.64
2019-02-20T15:21:05.471Z,46.34
2019-02-20T15:26:07.700Z,46.44
2019-02-20T15:31:09.663Z,46.69
2019-02-20T15:36:12.792Z,47.01
2019-02-20T15:41:15.298Z,46.96
2019-02-20T15:46:17.317Z,46.90
2019-02-20T15:51:19.211Z,46.99
2019-02-20T15:56:21.322Z,47.45
2019-02-20T16:01:23.253Z,48.07
2019-02-20T16:06:25.182Z,48.40
2019-02-20T16:11:27.063Z,48.93
2019-02-20T16:16:29.088Z,49.28
2019-02-20T16:21:30.997Z,49.71
2019-02-20T16:26:32.873Z,49.90
2019-02-20T16:31:34.770Z,50.19
2019-02-20T16:36:36.997Z,50.50
2019-02-20T16:41:38.965Z,51.39
2019-02-20T16:46:40.861Z,51.65
2019-02-20T16:51:44.090Z,52.42
2019-02-20T16:56:46.100Z,52.25
2019-02-20T17:01:48.124Z,52.97
2019-02-20T17:06:50.196Z,53.09
2019-02-20T17:11:52.284Z,53.07
2019-02-20T17:16:54.600Z,54.15
2019-02-20T17:21:56.592Z,54.17
2019-02-20T17:26:59.731Z,54.21
2019-02-20T17:32:01.626Z,54.62
2019-02-20T17:37:04.751Z,54.41
2019-02-20T17:42:06.657Z,54.58
2019-02-20T17:47:08.560Z,54.11
2019-02-20T17:52:10.725Z,54.03
2019-02-20T17:57:13.643Z,54.27
2019-02-20T18:02:15.551Z,53.88
2019-02-20T18:07:17.585Z,54.32
2019-02-20T18:12:19.529Z,54.65
2019-02-20T18:17:23.515Z,54.95
2019-02-20T18:22:25.550Z,55.70
2019-02-20T18:27:59.689Z,55.37
2019-02-20T18:33:01.819Z,58.03
2019-02-20T18:38:03.823Z,57.47
2019-02-20T18:43:05.764Z,57.30
2019-02-20T18:48:07.663Z,56.65
2019-02-20T18:53:09.661Z,56.24
2019-02-20T18:58:11.864Z,55.94
2019-02-20T19:03:15.176Z,55.85
2019-02-20T19:08:42.981Z,55.90
2019-02-20T19:14:00.423Z,57.23
2019-02-20T19:19:56.234Z,57.56
2019-02-20T19:25:45.332Z,56.96
2019-02-20T19:31:32.165Z,56.72
2019-02-20T19:37:19.290Z,55.96
2019-02-20T19:42:58.298Z,55.99
2019-02-20T19:48:34.382Z,55.12
2019-02-20T19:53:57.525Z,55.96
2019-02-20T20:00:02.977Z,55.94
2019-02-20T20:05:59.947Z,56.51
2019-02-20T20:11:14.333Z,57.42
2019-02-20T20:16:54.187Z,57.84
2019-02-20T20:22:41.466Z,57.67
2019-02-20T20:28:49.969Z,58.20
2019-02-20T20:34:27.591Z,58.88
2019-02-20T20:39:40.908Z,58.63
2019-02-20T20:45:03.691Z,58.84
2019-02-20T20:50:59.987Z,58.87
2019-02-20T20:56:29.123Z,59.27
2019-02-20T21:01:41.874Z,58.87
2019-02-20T21:07:00.462Z,59.55
2019-02-20T21:12:30.626Z,60.02
2019-02-20T21:18:10.477Z,60.07
2019-02-20T21:23:54.528Z,60.33
2019-02-20T21:29:27.842Z,61.02
2019-02-20T21:34:50.096Z,61.37
2019-02-20T21:40:01.795Z,61.58
2019-02-20T21:46:11.540Z,62.17
2019-02-20T21:51:47.616Z,62.02
2019-02-20T21:56:59.040Z,61.85
2019-02-20T22:02:22.616Z,62.44
2019-02-20T22:07:53.548Z,62.21
2019-02-20T22:13:40.793Z,62.53
2019-02-20T22:18:59.572Z,63.15
2019-02-20T22:24:45.056Z,62.23
2019-02-20T22:30:29.229Z,62.94
2019-02-20T22:36:16.563Z,63.06
2019-02-20T22:42:03.692Z,63.16
2019-02-20T22:47:34.373Z,63.23
2019-02-20T22:53:11.665Z,63.27
2019-02-20T22:58:51.572Z,63.39
2019-02-20T23:04:24.127Z,63.38
2019-02-20T23:09:52.639Z,63.40
2019-02-20T23:14:55.952Z,63.88
2019-02-20T23:19:59.096Z,63.80
2019-02-20T23:25:01.007Z,64.00
2019-02-20T23:30:12.566Z,64.17
2019-02-20T23:35:08.970Z,64.74
2019-02-20T23:40:11.379Z,65.04
2019-02-20T23:45:13.294Z,64.99
2019-02-20T23:50:15.212Z,65.17
2019-02-20T23:55:17.125Z,65.77
